Time;durP1;ratioP1;P1;durP2;ratioP2;P2;SDS_P1;SDS_P2;PMS_P1;PMS_P2;Temp;Humidity;BMP_temperature;BMP_pressure;BME280_temperature;BME280_humidity;BME280_pressure;Samples;Min_cycle;Max_cycle;Signal;HPM_P1;HPM_P2
2021/06/28 00:00:30;;;;;;;16.40;7.10;;;;;;;18.66;58.87;101329.06;6152126;23;20052;-81
2021/06/28 00:02:56;;;;;;;13.07;7.60;;;;;;;18.59;59.05;101328.06;6125874;23;20481;-80
2021/06/28 00:05:22;;;;;;;14.07;6.88;;;;;;;18.62;58.85;101326.88;6152521;23;20065;-81
2021/06/28 00:07:48;;;;;;;15.18;7.70;;;;;;;18.63;59.19;101325.84;6125770;23;20009;-80
2021/06/28 00:10:26;;;;;;;13.00;7.32;;;;;;;18.65;58.95;101324.66;6152178;23;20012;-80
2021/06/28 00:12:53;;;;;;;12.43;6.70;;;;;;;18.70;58.60;101330.44;6126214;23;20474;-80
2021/06/28 00:15:25;;;;;;;12.60;7.35;;;;;;;18.75;58.32;101328.06;6152268;23;20096;-80
2021/06/28 00:17:51;;;;;;;14.07;7.43;;;;;;;18.48;58.72;101331.16;6125715;23;20019;-80
2021/06/28 00:20:18;;;;;;;13.52;7.35;;;;;;;18.49;58.47;101331.00;6152440;23;20061;-81
2021/06/28 00:22:45;;;;;;;13.93;7.70;;;;;;;18.48;58.25;101332.00;6152344;23;20059;-81
2021/06/28 00:25:13;;;;;;;14.52;6.63;;;;;;;18.50;58.12;101329.13;6152745;23;20009;-81
2021/06/28 00:27:40;;;;;;;13.23;6.80;;;;;;;18.49;58.12;101324.72;6152316;23;20104;-80
2021/06/28 00:30:11;;;;;;;14.32;6.93;;;;;;;18.54;57.73;101325.88;6151198;23;20404;-80
2021/06/28 00:32:37;;;;;;;12.88;6.72;;;;;;;18.62;57.24;101329.59;6151492;23;20464;-81
2021/06/28 00:35:03;;;;;;;15.63;7.57;;;;;;;18.64;56.97;101330.25;6124774;23;20449;-80
2021/06/28 00:37:29;;;;;;;13.23;6.53;;;;;;;18.61;57.02;101331.50;6151240;23;20005;-81
2021/06/28 00:39:55;;;;;;;12.95;6.40;;;;;;;18.57;56.93;101332.84;6151022;23;20017;-81
2021/06/28 00:42:24;;;;;;;20.02;7.35;;;;;;;18.49;57.35;101335.59;6124737;23;20017;-80
2021/06/28 00:44:50;;;;;;;18.98;5.97;;;;;;;18.53;57.12;101334.22;6151013;23;20081;-80
2021/06/28 00:47:15;;;;;;;10.48;7.60;;;;;;;18.48;57.23;101331.16;6124598;23;20033;-80
2021/06/28 00:49:41;;;;;;;13.05;5.25;;;;;;;18.49;56.88;101335.59;6150856;23;20087;-81
2021/06/28 00:52:07;;;;;;;14.52;5.95;;;;;;;18.51;57.08;101336.25;6150860;23;20005;-81
2021/06/28 00:54:33;;;;;;;17.73;6.03;;;;;;;18.38;57.49;101337.63;6151304;23;20005;-81
2021/06/28 00:57:00;;;;;;;19.83;5.75;;;;;;;18.44;57.12;101335.25;6151113;23;20040;-80
2021/06/28 00:59:27;;;;;;;10.60;5.20;;;;;;;18.48;57.07;101333.88;6124466;23;20009;-80
2021/06/28 01:01:53;;;;;;;13.57;4.90;;;;;;;18.53;56.87;101336.94;6150716;23;20009;-80
2021/06/28 01:04:19;;;;;;;14.93;6.28;;;;;;;18.46;56.89;101338.66;6150708;23;20502;-80
2021/06/28 01:06:44;;;;;;;14.90;5.38;;;;;;;18.27;57.45;101337.97;6150291;23;20056;-80
2021/06/28 01:09:10;;;;;;;19.50;6.30;;;;;;;18.33;57.11;101341.91;6150924;23;20097;-80
2021/06/28 01:11:35;;;;;;;17.08;6.18;;;;;;;18.34;57.00;101330.00;6124428;23;20012;-81
2021/06/28 01:14:02;;;;;;;14.63;5.50;;;;;;;18.33;56.70;101326.44;6124148;23;20009;-80
2021/06/28 01:16:27;;;;;;;18.42;7.00;;;;;;;18.31;57.20;101330.34;6150587;23;20005;-81
2021/06/28 01:18:53;;;;;;;12.68;5.13;;;;;;;18.41;56.61;101339.16;6150504;23;20012;-81
2021/06/28 01:21:18;;;;;;;10.65;5.35;;;;;;;18.11;57.39;101343.44;6124272;23;20418;-80
2021/06/28 01:23:44;;;;;;;18.40;5.45;;;;;;;18.15;57.37;101336.63;6152173;23;20009;-80
2021/06/28 01:26:11;;;;;;;12.88;4.95;;;;;;;18.12;57.16;101339.69;6152156;23;20400;-80
2021/06/28 01:28:38;;;;;;;13.52;5.80;;;;;;;18.20;56.89;101334.25;6106881;23;1084246;-80
2021/06/28 01:31:05;;;;;;;10.05;5.45;;;;;;;18.04;57.17;101334.28;6153526;23;20013;-80
2021/06/28 01:33:31;;;;;;;10.32;4.90;;;;;;;18.02;57.24;101328.13;6153653;23;20027;-80
2021/06/28 01:35:57;;;;;;;10.00;5.18;;;;;;;18.07;57.10;101332.06;6127160;23;20409;-80
2021/06/28 01:38:22;;;;;;;9.45;5.00;;;;;;;17.97;57.11;101325.06;6153697;23;20006;-81
2021/06/28 01:40:47;;;;;;;14.52;5.88;;;;;;;17.97;57.33;101334.09;6153737;23;20016;-80
2021/06/28 01:43:13;;;;;;;11.63;5.35;;;;;;;17.95;57.43;101330.69;6153597;23;20031;-80
2021/06/28 01:45:39;;;;;;;12.63;4.95;;;;;;;17.97;57.30;101323.22;6153792;23;20076;-81
2021/06/28 01:48:05;;;;;;;9.02;4.03;;;;;;;18.10;57.05;101315.38;6153092;23;20009;-81
2021/06/28 01:50:32;;;;;;;17.95;6.18;;;;;;;17.95;57.14;101316.25;6127331;23;20017;-80
2021/06/28 01:52:58;;;;;;;10.43;5.22;;;;;;;17.87;57.45;101314.34;6126974;23;20012;-80
2021/06/28 01:55:24;;;;;;;15.18;5.32;;;;;;;17.92;57.08;101314.72;6127075;23;20005;-80
2021/06/28 01:57:52;;;;;;;10.82;5.45;;;;;;;17.92;56.94;101317.44;6153733;23;20005;-80
2021/06/28 02:00:27;;;;;;;8.55;4.65;;;;;;;17.96;57.05;101312.50;6127007;23;20009;-81
2021/06/28 02:02:57;;;;;;;11.60;5.43;;;;;;;17.87;57.14;101309.75;6153265;23;20006;-80
2021/06/28 02:05:23;;;;;;;11.55;4.57;;;;;;;17.95;57.06;101303.47;6153201;23;20014;-80
2021/06/28 02:07:48;;;;;;;10.82;4.85;;;;;;;17.92;57.11;101301.09;6153569;23;20086;-80
2021/06/28 02:10:13;;;;;;;8.73;4.53;;;;;;;17.82;57.35;101301.28;6127170;23;20482;-80
2021/06/28 02:12:39;;;;;;;12.57;4.97;;;;;;;17.79;57.46;101298.03;6153390;23;20088;-80
2021/06/28 02:15:05;;;;;;;11.13;4.72;;;;;;;17.75;57.63;101297.47;6153381;23;20056;-81
2021/06/28 02:17:30;;;;;;;10.80;4.63;;;;;;;17.76;57.44;101293.75;6153534;23;20009;-80
2021/06/28 02:19:55;;;;;;;10.38;5.05;;;;;;;17.84;57.27;101301.09;6126813;23;20349;-80
2021/06/28 02:22:21;;;;;;;10.70;4.45;;;;;;;17.75;57.12;101299.34;6153490;23;20140;-80
2021/06/28 02:24:46;;;;;;;8.93;4.60;;;;;;;17.65;57.48;101300.38;6127234;23;20059;-80
2021/06/28 02:27:11;;;;;;;11.48;5.50;;;;;;;17.61;57.54;101298.16;6153451;23;20506;-80
2021/06/28 02:29:37;;;;;;;12.15;4.60;;;;;;;17.63;57.33;101296.97;6153422;23;20422;-80
2021/06/28 02:32:03;;;;;;;11.05;4.07;;;;;;;17.76;57.06;101296.47;6153415;23;20001;-80
2021/06/28 02:34:28;;;;;;;10.00;4.32;;;;;;;17.60;57.50;101296.44;6152687;23;20005;-80
2021/06/28 02:36:53;;;;;;;12.20;4.30;;;;;;;17.72;57.51;101292.38;6153540;23;20068;-80
2021/06/28 02:39:19;;;;;;;8.48;4.68;;;;;;;17.65;57.75;101294.06;6153584;23;20005;-80
2021/06/28 02:41:44;;;;;;;11.82;4.97;;;;;;;17.61;57.56;101295.44;6153494;23;20017;-80
2021/06/28 02:44:09;;;;;;;13.57;4.43;;;;;;;17.65;57.52;101294.91;6153209;23;20072;-80
2021/06/28 02:46:35;;;;;;;16.25;4.57;;;;;;;17.57;57.63;101294.06;6153257;23;20564;-80
2021/06/28 02:49:00;;;;;;;9.93;4.43;;;;;;;17.57;57.77;101294.06;6126866;23;20020;-80
2021/06/28 02:51:26;;;;;;;15.50;4.53;;;;;;;17.55;57.72;101293.41;6153708;23;20386;-80
2021/06/28 02:53:51;;;;;;;9.00;3.97;;;;;;;17.65;57.42;101289.47;6126955;23;20041;-80
2021/06/28 02:56:17;;;;;;;11.32;4.43;;;;;;;17.60;57.42;101291.00;6153213;23;20012;-80
2021/06/28 02:58:57;;;;;;;10.60;4.72;;;;;;;17.54;57.83;101288.94;6153029;23;20434;-80
2021/06/28 03:01:25;;;;;;;13.30;4.95;;;;;;;17.58;57.63;101288.47;6153274;23;20005;-80
2021/06/28 03:03:51;;;;;;;10.27;4.18;;;;;;;17.54;57.66;101288.94;6153111;23;20417;-80
2021/06/28 03:06:18;;;;;;;16.85;4.70;;;;;;;17.54;57.85;101283.50;6153192;23;20039;-81
2021/06/28 03:08:44;;;;;;;7.90;4.03;;;;;;;17.56;57.41;101282.34;6153076;23;20005;-80
2021/06/28 03:11:10;;;;;;;17.42;5.32;;;;;;;17.51;57.44;101283.84;6126767;23;20019;-80
2021/06/28 03:13:37;;;;;;;15.27;4.40;;;;;;;17.50;57.42;101280.28;6153149;23;20013;-80
2021/06/28 03:16:03;;;;;;;11.75;5.15;;;;;;;17.49;57.74;101275.88;6152682;23;20032;-80
2021/06/28 03:18:28;;;;;;;11.25;4.35;;;;;;;17.47;57.77;101288.78;6153021;23;20006;-80
2021/06/28 03:20:54;;;;;;;12.13;4.50;;;;;;;17.52;57.50;101277.41;6126638;23;20013;-80
2021/06/28 03:23:20;;;;;;;11.80;5.20;;;;;;;17.55;57.67;101279.78;6153232;23;20005;-80
2021/06/28 03:25:46;;;;;;;15.18;5.30;;;;;;;17.44;58.01;101284.53;6126567;23;20016;-80
2021/06/28 03:28:11;;;;;;;9.40;3.50;;;;;;;17.45;57.92;101286.25;6152480;23;20017;-80
2021/06/28 03:30:37;;;;;;;9.98;3.63;;;;;;;17.42;58.02;101286.56;6126301;23;20009;-80
2021/06/28 03:33:02;;;;;;;9.27;4.30;;;;;;;17.43;58.19;101280.13;6153321;23;20068;-80
2021/06/28 03:35:27;;;;;;;15.18;4.70;;;;;;;17.59;57.68;101289.31;6152867;23;20456;-80
2021/06/28 03:37:53;;;;;;;14.63;3.72;;;;;;;17.57;57.77;101277.75;6152816;23;20474;-80
2021/06/28 03:40:18;;;;;;;8.93;3.80;;;;;;;17.37;58.21;101280.78;6152831;23;20009;-80
2021/06/28 03:42:44;;;;;;;13.02;5.60;;;;;;;17.39;58.25;101286.91;6153065;23;20016;-80
2021/06/28 03:45:11;;;;;;;8.35;3.53;;;;;;;17.56;57.64;101282.34;6152354;23;20009;-80
2021/06/28 03:47:37;;;;;;;9.82;3.80;;;;;;;17.51;58.12;101290.16;6126455;23;20338;-80
2021/06/28 03:50:05;;;;;;;10.27;3.95;;;;;;;17.51;58.15;101295.59;6152278;23;20006;-80
2021/06/28 03:52:30;;;;;;;10.85;3.95;;;;;;;17.61;57.82;101290.84;6125920;23;20010;-80
2021/06/28 03:54:56;;;;;;;10.30;3.75;;;;;;;17.55;58.33;101301.56;6126118;23;20008;-80
2021/06/28 03:57:21;;;;;;;12.15;4.22;;;;;;;17.62;57.70;101292.53;6152155;23;20016;-80
2021/06/28 03:59:47;;;;;;;11.07;4.30;;;;;;;17.72;57.97;101297.81;6152895;23;20118;-80
2021/06/28 04:02:12;;;;;;;12.10;4.22;;;;;;;17.63;58.06;101294.25;6152971;23;20009;-80
2021/06/28 04:04:37;;;;;;;7.72;3.33;;;;;;;17.58;58.23;101301.22;6126109;23;20355;-80
2021/06/28 04:07:03;;;;;;;10.40;3.65;;;;;;;17.74;58.23;101289.50;6152467;23;20009;-80
2021/06/28 04:09:28;;;;;;;14.40;3.83;;;;;;;17.72;58.15;101292.38;6152954;23;20009;-80
2021/06/28 04:11:53;;;;;;;12.00;4.18;;;;;;;17.61;58.64;101290.84;6152705;23;20005;-80
2021/06/28 04:14:19;;;;;;;10.50;3.80;;;;;;;17.80;58.50;101294.28;6126141;23;20016;-80
2021/06/28 04:16:44;;;;;;;13.50;4.00;;;;;;;17.66;58.76;101299.38;6152739;23;20435;-80
2021/06/28 04:19:09;;;;;;;7.57;3.55;;;;;;;17.86;58.51;101299.91;6152509;23;20010;-80
2021/06/28 04:21:35;;;;;;;7.93;3.38;;;;;;;17.74;59.08;101300.38;6152637;23;20005;-80
2021/06/28 04:24:03;;;;;;;13.65;4.22;;;;;;;17.82;59.21;101304.00;6126136;23;20017;-80
2021/06/28 04:26:29;;;;;;;11.18;3.75;;;;;;;17.90;59.05;101294.97;6152848;23;20009;-80
2021/06/28 04:28:55;;;;;;;10.80;4.47;;;;;;;17.81;59.40;101299.56;6151936;23;20025;-81
2021/06/28 04:31:20;;;;;;;12.77;4.47;;;;;;;17.89;59.63;101304.16;6152395;23;20013;-80
2021/06/28 04:33:46;;;;;;;11.75;4.45;;;;;;;17.96;59.84;101309.78;6152760;23;20303;-80
2021/06/28 04:36:11;;;;;;;13.43;4.07;;;;;;;17.88;59.96;101311.47;6152668;23;20005;-80
2021/06/28 04:38:36;;;;;;;10.23;3.90;;;;;;;17.90;59.81;101316.72;6152355;23;20005;-80
2021/06/28 04:41:02;;;;;;;8.05;3.55;;;;;;;18.01;59.80;101312.84;6152470;23;20466;-80
2021/06/28 04:43:27;;;;;;;7.25;3.63;;;;;;;17.96;59.61;101309.78;6152327;23;20438;-80
2021/06/28 04:45:52;;;;;;;8.90;3.70;;;;;;;18.02;59.85;101309.09;6152603;23;20422;-80
2021/06/28 04:48:18;;;;;;;9.43;3.75;;;;;;;18.07;59.28;101301.28;6151586;23;20029;-80
2021/06/28 04:50:43;;;;;;;11.00;3.92;;;;;;;18.01;59.20;101305.53;6152176;23;20075;-81
2021/06/28 04:53:08;;;;;;;11.32;4.28;;;;;;;18.13;58.76;101304.16;6125761;23;20005;-80
2021/06/28 04:55:34;;;;;;;13.43;4.05;;;;;;;18.14;59.04;101308.56;6152376;23;20033;-80
2021/06/28 04:57:59;;;;;;;12.23;3.30;;;;;;;18.17;58.19;101304.66;6153708;23;20016;-80
2021/06/28 05:00:25;;;;;;;11.43;3.80;;;;;;;18.20;58.36;101301.59;6154337;23;20006;-80
2021/06/28 05:02:51;;;;;;;7.95;3.35;;;;;;;18.12;58.07;101304.31;6154602;23;20013;-80
2021/06/28 05:05:17;;;;;;;8.95;3.47;;;;;;;18.29;58.42;101302.44;6155501;23;20033;-81
2021/06/28 05:07:43;;;;;;;10.18;4.10;;;;;;;18.22;57.82;101305.00;6154839;23;20381;-81
2021/06/28 05:10:11;;;;;;;11.77;3.17;;;;;;;18.23;57.53;101305.84;6154296;23;20080;-80
2021/06/28 05:12:36;;;;;;;8.90;3.38;;;;;;;18.20;57.84;101306.19;6128345;23;20006;-80
2021/06/28 05:15:04;;;;;;;8.95;4.13;;;;;;;18.23;57.28;101309.41;6127504;23;20013;-80
2021/06/28 05:17:29;;;;;;;13.52;3.58;;;;;;;18.26;57.64;101306.34;6154346;23;20280;-81
2021/06/28 05:19:54;;;;;;;7.63;3.28;;;;;;;18.27;57.01;101301.75;6153884;23;20005;-80
2021/06/28 05:22:20;;;;;;;15.32;3.67;;;;;;;18.28;56.87;101298.88;6153883;23;20023;-80
2021/06/28 05:24:45;;;;;;;9.73;2.78;;;;;;;18.31;57.46;101294.94;6154054;23;20009;-80
2021/06/28 05:27:11;;;;;;;7.85;3.30;;;;;;;18.33;57.44;101291.03;6127394;23;20006;-80
2021/06/28 05:29:36;;;;;;;10.88;3.13;;;;;;;18.43;57.20;101293.56;6154100;23;20473;-80
2021/06/28 05:32:02;;;;;;;10.20;3.70;;;;;;;18.38;57.74;101294.06;6154546;23;20005;-80
2021/06/28 05:34:27;;;;;;;12.43;3.20;;;;;;;18.41;57.52;101292.88;6154122;23;20012;-80
2021/06/28 05:36:52;;;;;;;10.38;3.30;;;;;;;18.43;57.85;101296.28;6154068;23;20010;-80
2021/06/28 05:39:18;;;;;;;11.30;3.05;;;;;;;18.44;57.91;101292.53;6153565;23;20434;-80
2021/06/28 05:41:43;;;;;;;7.25;3.08;;;;;;;18.40;58.20;101287.63;6153894;23;20311;-80
2021/06/28 05:44:09;;;;;;;14.35;4.03;;;;;;;18.48;57.95;101293.03;6154053;23;20006;-81
2021/06/28 05:46:34;;;;;;;12.52;3.83;;;;;;;18.49;58.13;101292.03;6154178;23;20010;-80
2021/06/28 05:49:00;;;;;;;12.00;3.60;;;;;;;18.61;58.30;101290.63;6153705;23;20481;-80
2021/06/28 05:51:25;;;;;;;13.60;4.13;;;;;;;18.63;58.15;101290.44;6154071;23;20080;-80
2021/06/28 05:53:51;;;;;;;15.43;3.63;;;;;;;18.69;57.90;101298.75;6153558;23;20020;-80
2021/06/28 05:56:16;;;;;;;8.73;3.25;;;;;;;18.70;57.66;101292.31;6153984;23;20041;-80
2021/06/28 05:58:42;;;;;;;10.48;3.35;;;;;;;18.66;57.89;101287.34;6127444;23;20064;-80
2021/06/28 06:01:09;;;;;;;10.38;3.83;;;;;;;18.67;58.16;101284.47;6154388;23;20438;-81
2021/06/28 06:03:35;;;;;;;10.32;3.85;;;;;;;18.75;57.98;101295.34;6153796;23;20010;-80
2021/06/28 06:06:00;;;;;;;19.58;3.90;;;;;;;18.81;58.15;101289.19;6154007;23;20010;-80
2021/06/28 06:08:26;;;;;;;10.60;3.42;;;;;;;18.73;58.22;101286.53;6155961;23;20016;-80
2021/06/28 06:10:52;;;;;;;10.52;3.50;;;;;;;18.84;58.25;101282.56;6153952;23;20433;-80
2021/06/28 06:13:18;;;;;;;13.30;3.58;;;;;;;18.85;58.40;101288.84;6153908;23;20008;-80
2021/06/28 06:15:44;;;;;;;13.13;3.70;;;;;;;18.88;58.17;101281.16;6127339;23;20009;-80
2021/06/28 06:18:09;;;;;;;7.60;3.67;;;;;;;18.88;58.06;101288.50;6153049;23;20327;-80
2021/06/28 06:20:34;;;;;;;15.60;3.92;;;;;;;18.90;58.17;101289.19;6153599;23;20434;-80
2021/06/28 06:23:00;;;;;;;10.02;3.30;;;;;;;19.04;58.13;101293.91;6153013;23;20021;-80
2021/06/28 06:25:25;;;;;;;7.22;3.08;;;;;;;19.08;58.66;101288.94;6153916;23;20001;-80
2021/06/28 06:27:51;;;;;;;9.48;3.80;;;;;;;18.97;59.88;101292.88;6152993;23;20010;-80
2021/06/28 06:30:16;;;;;;;10.10;3.85;;;;;;;19.08;59.09;101292.50;6153760;23;20009;-80
2021/06/28 06:32:42;;;;;;;21.15;4.22;;;;;;;19.12;59.00;101296.56;6153936;23;20426;-80
2021/06/28 06:35:08;;;;;;;19.05;4.63;;;;;;;19.18;58.27;101298.56;6153120;23;20005;-80
2021/06/28 06:37:33;;;;;;;13.45;3.88;;;;;;;19.16;58.15;101308.84;6153334;23;20009;-80
2021/06/28 06:39:59;;;;;;;10.32;3.28;;;;;;;19.22;57.92;101297.22;6153182;23;20009;-80
2021/06/28 06:42:24;;;;;;;9.48;3.40;;;;;;;19.31;57.65;101302.59;6153464;23;20056;-80
2021/06/28 06:44:50;;;;;;;11.38;3.92;;;;;;;19.33;56.97;101304.13;6126974;23;20041;-80
2021/06/28 06:47:15;;;;;;;16.17;3.33;;;;;;;19.38;57.91;101303.59;6127282;23;20430;-80
2021/06/28 06:49:42;;;;;;;9.85;3.92;;;;;;;19.43;57.31;101307.47;6153145;23;20005;-80
2021/06/28 06:52:08;;;;;;;8.05;3.55;;;;;;;19.40;57.71;101313.28;6153299;23;20016;-80
2021/06/28 06:54:33;;;;;;;8.18;3.15;;;;;;;19.44;57.46;101311.91;6152818;23;20080;-80
2021/06/28 06:56:58;;;;;;;8.10;3.33;;;;;;;19.46;57.19;101319.91;6153297;23;20015;-81
2021/06/28 06:59:24;;;;;;;11.43;3.65;;;;;;;19.41;57.74;101316.88;6126775;23;20072;-81
2021/06/28 07:01:49;;;;;;;7.30;3.20;;;;;;;19.47;57.39;101314.28;6153449;23;20414;-80
2021/06/28 07:04:15;;;;;;;8.63;3.67;;;;;;;19.55;58.35;101318.81;6152877;23;20362;-80
2021/06/28 07:06:41;;;;;;;8.98;3.55;;;;;;;19.58;57.20;101317.59;6153193;23;20036;-80
2021/06/28 07:09:07;;;;;;;16.75;6.13;;;;;;;19.60;57.18;101316.41;6125979;23;20409;-80
2021/06/28 07:11:32;;;;;;;12.75;4.50;;;;;;;19.70;57.25;101317.03;6153117;23;20005;-80
2021/06/28 07:13:59;;;;;;;9.52;3.42;;;;;;;19.70;56.95;101316.19;6152743;23;20326;-80
2021/06/28 07:16:30;;;;;;;8.63;3.25;;;;;;;19.72;57.00;101325.91;6153144;23;20016;-81
2021/06/28 07:18:59;;;;;;;10.88;3.67;;;;;;;19.79;57.47;101322.44;6152674;23;20460;-80
2021/06/28 07:21:25;;;;;;;8.02;3.38;;;;;;;19.83;57.04;101319.16;6153078;23;20060;-81
2021/06/28 07:23:52;;;;;;;14.65;5.28;;;;;;;19.91;57.24;101323.72;6152591;23;20373;-81
2021/06/28 07:26:18;;;;;;;7.18;3.55;;;;;;;19.77;57.60;101324.50;6152857;23;20013;-81
2021/06/28 07:28:43;;;;;;;9.13;3.83;;;;;;;19.79;57.64;101325.16;6152096;23;20036;-81
2021/06/28 07:31:08;;;;;;;11.88;3.33;;;;;;;19.76;57.87;101331.00;6152569;23;20084;-81
2021/06/28 07:33:38;;;;;;;12.50;4.05;;;;;;;19.80;57.84;101333.16;6153322;23;20013;-81
2021/06/28 07:36:05;;;;;;;10.98;3.72;;;;;;;19.89;57.61;101321.16;6152922;23;20079;-81
2021/06/28 07:38:30;;;;;;;9.15;3.28;;;;;;;19.85;58.09;101327.16;6126672;23;20450;-81
2021/06/28 07:40:55;;;;;;;10.98;4.13;;;;;;;19.87;57.64;101323.22;6152512;23;20080;-80
2021/06/28 07:43:21;;;;;;;13.52;4.30;;;;;;;19.93;58.15;101318.94;6152810;23;20645;-80
2021/06/28 07:45:47;;;;;;;6.38;3.10;;;;;;;20.01;57.57;101316.09;6152735;23;20389;-80
2021/06/28 07:48:13;;;;;;;10.20;3.97;;;;;;;20.07;57.63;101322.72;6152620;23;20001;-81
2021/06/28 07:50:38;;;;;;;10.23;3.97;;;;;;;20.07;57.60;101318.09;6126466;23;20016;-81
2021/06/28 07:53:04;;;;;;;6.85;3.58;;;;;;;20.08;57.69;101316.22;6125790;23;20337;-81
2021/06/28 07:55:29;;;;;;;8.02;3.40;;;;;;;20.17;57.48;101307.78;6127581;23;20055;-81
2021/06/28 07:57:54;;;;;;;8.13;4.07;;;;;;;20.17;57.79;101305.06;6152904;23;20084;-81
2021/06/28 08:00:20;;;;;;;9.15;4.13;;;;;;;20.20;58.03;101315.63;6152198;23;20107;-81
2021/06/28 08:02:46;;;;;;;8.77;3.53;;;;;;;20.29;57.27;101313.63;6152931;23;20080;-81
2021/06/28 08:05:12;;;;;;;9.60;3.97;;;;;;;20.27;58.31;101307.53;6152353;23;20076;-81
2021/06/28 08:07:38;;;;;;;8.52;3.80;;;;;;;20.37;57.68;101304.53;6152317;23;20015;-81
2021/06/28 08:10:06;;;;;;;9.30;3.97;;;;;;;20.32;58.06;101301.50;6152225;23;20037;-80
2021/06/28 08:12:32;;;;;;;10.00;3.70;;;;;;;20.32;58.41;101305.06;6152475;23;20012;-80
2021/06/28 08:14:57;;;;;;;8.52;3.80;;;;;;;20.41;58.27;101303.09;6153257;23;20006;-80
2021/06/28 08:17:23;;;;;;;11.07;4.20;;;;;;;20.39;59.15;101314.22;6152780;23;20080;-81
2021/06/28 08:19:48;;;;;;;9.00;3.40;;;;;;;20.44;58.20;101302.72;6153146;23;20005;-81
2021/06/28 08:22:15;;;;;;;7.07;3.40;;;;;;;20.48;57.89;101304.06;6126399;23;20020;-80
2021/06/28 08:24:40;;;;;;;8.32;3.70;;;;;;;20.52;57.89;101304.56;6152441;23;20041;-81
2021/06/28 08:27:06;;;;;;;7.55;3.58;;;;;;;20.55;58.19;101305.03;6152289;23;20028;-81
2021/06/28 08:29:31;;;;;;;10.52;4.05;;;;;;;20.55;57.73;101299.56;6151863;23;20029;-80
2021/06/28 08:31:57;;;;;;;7.45;3.78;;;;;;;20.62;57.33;101297.78;6152515;23;20323;-80
2021/06/28 08:34:23;;;;;;;7.35;3.42;;;;;;;20.66;58.07;101290.03;6125988;23;20085;-80
2021/06/28 08:36:49;;;;;;;6.15;3.30;;;;;;;20.68;57.94;101284.41;6125826;23;20009;-80
2021/06/28 08:39:16;;;;;;;7.18;3.88;;;;;;;20.79;57.70;101292.13;6152369;23;20368;-80
2021/06/28 08:41:46;;;;;;;7.82;4.07;;;;;;;20.80;58.20;101282.88;6152005;23;20013;-81
2021/06/28 08:44:13;;;;;;;7.82;3.97;;;;;;;20.83;57.38;101279.78;6152707;23;20014;-81
2021/06/28 08:46:38;;;;;;;7.95;3.20;;;;;;;20.91;57.00;101270.59;6153221;23;20759;-81
2021/06/28 08:49:04;;;;;;;7.22;4.10;;;;;;;20.92;57.24;101273.16;6152515;23;20037;-81
2021/06/28 08:51:30;;;;;;;6.07;3.55;;;;;;;20.93;58.00;101274.84;6152767;23;20036;-81
2021/06/28 08:53:56;;;;;;;10.13;3.63;;;;;;;20.92;57.59;101275.06;6126238;23;20005;-81
2021/06/28 08:56:22;;;;;;;7.53;3.65;;;;;;;21.02;57.43;101279.16;6126465;23;20437;-81
2021/06/28 08:58:48;;;;;;;5.47;3.17;;;;;;;21.04;57.73;101277.09;6152112;23;20021;-81
2021/06/28 09:01:13;;;;;;;6.78;3.50;;;;;;;21.05;56.91;101273.31;6152635;23;20514;-81
2021/06/28 09:03:38;;;;;;;14.52;3.10;;;;;;;21.14;56.92;101271.31;6152294;23;20016;-80
2021/06/28 09:06:10;;;;;;;6.22;3.00;;;;;;;21.21;57.17;101274.13;6125864;23;20025;-81
2021/06/28 09:08:53;;;;;;;8.82;3.33;;;;;;;21.22;55.93;101284.06;6126039;23;20430;-81
2021/06/28 09:11:18;;;;;;;7.53;3.78;;;;;;;21.22;55.76;101279.44;6152446;23;20029;-81
2021/06/28 09:13:47;;;;;;;8.18;3.28;;;;;;;21.26;56.98;101275.25;6152654;23;20032;-81
2021/06/28 09:16:19;;;;;;;7.50;3.33;;;;;;;21.23;55.62;101277.53;6152714;23;20013;-81
2021/06/28 09:19:01;;;;;;;9.07;3.78;;;;;;;21.27;56.22;101276.09;6153078;23;20793;-81
2021/06/28 09:21:37;;;;;;;6.32;3.80;;;;;;;21.29;55.14;101285.81;6126051;23;20005;-81
2021/06/28 09:24:05;;;;;;;8.30;3.28;;;;;;;21.29;55.22;101283.06;6152622;23;20441;-81
2021/06/28 09:26:34;;;;;;;4.85;3.20;;;;;;;21.38;55.47;101283.84;6152515;23;20025;-81
2021/06/28 09:29:02;;;;;;;6.53;3.17;;;;;;;21.43;57.12;101281.38;6152194;23;20026;-81
2021/06/28 09:31:34;;;;;;;4.20;3.00;;;;;;;21.48;55.04;101283.53;6152379;23;20006;-80
2021/06/28 09:34:17;;;;;;;5.97;2.90;;;;;;;21.53;55.22;101281.06;6152829;23;20060;-81
2021/06/28 09:36:49;;;;;;;7.45;3.88;;;;;;;21.52;54.75;101284.84;6152968;23;20077;-81
2021/06/28 09:39:38;;;;;;;5.30;2.78;;;;;;;21.52;54.98;101269.28;6152398;23;20112;-81
2021/06/28 09:42:06;;;;;;;6.90;3.42;;;;;;;21.56;55.39;101276.03;6125829;23;20013;-81
2021/06/28 09:44:32;;;;;;;12.75;2.60;;;;;;;21.56;55.36;101266.97;6154227;23;20011;-81
2021/06/28 09:47:08;;;;;;;6.03;3.50;;;;;;;21.61;56.56;101266.38;6154451;23;20002;-81
2021/06/28 09:49:34;;;;;;;9.05;3.30;;;;;;;21.73;55.35;101275.75;6127745;23;20386;-81
2021/06/28 09:51:59;;;;;;;7.38;3.00;;;;;;;21.74;55.72;101277.47;6127900;23;20048;-81
2021/06/28 09:54:25;;;;;;;8.32;3.42;;;;;;;21.71;55.47;101269.66;6154064;23;20009;-81
2021/06/28 09:56:54;;;;;;;6.55;3.08;;;;;;;21.80;55.60;101276.69;6154004;23;20068;-81
2021/06/28 09:59:37;;;;;;;5.47;3.17;;;;;;;21.87;55.04;101274.00;6153866;23;20076;-81
2021/06/28 10:02:24;;;;;;;10.05;3.03;;;;;;;21.95;56.36;101280.19;6127632;23;20041;-81
2021/06/28 10:05:12;;;;;;;5.07;2.53;;;;;;;22.06;56.61;101283.44;6154659;23;20481;-81
2021/06/28 10:07:39;;;;;;;5.15;3.03;;;;;;;22.10;56.48;101284.72;6154202;23;20002;-81
2021/06/28 10:10:13;;;;;;;8.38;3.00;;;;;;;22.09;53.91;101291.25;6154428;23;20009;-81
2021/06/28 10:12:45;;;;;;;5.95;3.22;;;;;;;22.07;54.01;101279.66;6154285;23;20730;-81
2021/06/28 10:15:14;;;;;;;5.25;2.75;;;;;;;22.17;53.90;101289.25;6153876;23;20392;-81
2021/06/28 10:17:41;;;;;;;5.78;2.92;;;;;;;22.23;54.45;101279.41;6154115;23;20084;-81
2021/06/28 10:20:09;;;;;;;6.63;2.92;;;;;;;22.32;55.61;101280.94;6154884;23;20264;-81
2021/06/28 10:22:36;;;;;;;4.95;2.53;;;;;;;22.34;54.56;101278.81;6155840;23;20005;-81
2021/06/28 10:25:02;;;;;;;15.82;3.13;;;;;;;22.40;55.19;101269.81;6127464;23;20017;-81
2021/06/28 10:27:28;;;;;;;6.45;3.40;;;;;;;22.43;55.87;101276.78;6153875;23;20010;-81
2021/06/28 10:29:54;;;;;;;6.72;2.88;;;;;;;22.43;55.14;101272.16;6153424;23;20010;-81
2021/06/28 10:32:20;;;;;;;5.40;2.58;;;;;;;22.54;54.52;101278.13;6127070;23;20005;-81
2021/06/28 10:34:51;;;;;;;12.20;3.33;;;;;;;22.59;54.29;101270.13;6127488;23;20016;-81
2021/06/28 10:37:29;;;;;;;6.57;3.33;;;;;;;22.66;54.33;101265.56;6153854;23;20040;-81
2021/06/28 10:39:57;;;;;;;7.30;3.05;;;;;;;22.70;52.54;101267.66;6127302;23;20005;-81
2021/06/28 10:42:31;;;;;;;3.47;2.50;;;;;;;22.67;52.11;101268.06;6127397;23;20005;-81
2021/06/28 10:44:56;;;;;;;5.82;2.83;;;;;;;22.68;52.21;101268.91;6126833;23;20036;-81
2021/06/28 10:47:22;;;;;;;6.03;2.65;;;;;;;22.68;51.02;101269.78;6153873;23;20008;-81
2021/06/28 10:49:50;;;;;;;5.88;2.00;;;;;;;22.75;53.82;101266.22;6153740;23;20101;-81
2021/06/28 10:52:42;;;;;;;6.68;2.35;;;;;;;22.77;52.29;101250.41;6153628;23;20017;-80
2021/06/28 10:55:13;;;;;;;6.30;2.53;;;;;;;22.78;51.65;101263.09;6153053;23;20009;-81
2021/06/28 10:57:40;;;;;;;3.97;2.30;;;;;;;22.81;50.17;101249.81;6153001;23;20434;-81
2021/06/28 11:00:06;;;;;;;3.97;2.20;;;;;;;22.84;49.82;101254.88;6153055;23;20009;-81
2021/06/28 11:02:39;;;;;;;11.40;2.42;;;;;;;22.84;50.03;101249.41;6153531;23;20016;-81
2021/06/28 11:05:11;;;;;;;5.72;2.42;;;;;;;22.93;50.60;101248.16;6153659;23;20438;-81
2021/06/28 11:07:47;;;;;;;4.97;3.00;;;;;;;22.93;50.38;101245.44;6154242;23;20001;-81
2021/06/28 11:10:33;;;;;;;5.82;2.97;;;;;;;22.94;48.99;101244.41;6127401;23;20021;-81
2021/06/28 11:13:26;;;;;;;5.57;2.78;;;;;;;23.04;49.53;101245.91;6128126;23;20501;-81
2021/06/28 11:15:52;;;;;;;3.28;2.10;;;;;;;23.13;49.87;101244.69;6127204;23;20040;-81
2021/06/28 11:18:30;;;;;;;5.00;2.58;;;;;;;23.14;50.64;101238.13;6154343;23;20060;-81
2021/06/28 11:20:56;;;;;;;7.22;2.85;;;;;;;23.16;49.34;101227.78;6153868;23;20087;-81